Juneau, Alaska
Current Conditions -  °F | °C
As of 12:53 AM on Saturday 29 Nov 2014 (Local Time) from PAJN Reporting Station
Few Clouds Few Clouds  
Wind Chill: 16°   Ceiling: Unl
Heat Index: 16°   Visibility: 10mi
Dew Point: 13°   Wind: 0mph
Humidity: 88%   Direction: NA
Pressure: 30.17"   Gusts: NA
Location:  58.37°N, 134.57°W
Report Text: PAJN 290953Z 00000KT 10SM FEW160 M09/M11 A3017 RMK AO2 SLP216 T10891106 $
Loading
Personal Weather Stations






























Interactive Weather Map New forecast layout! Learn more

10-Day Weather Forecast

Advertisements
Track Severe Weather on mobile